createdAt,value
2018-05-11T00:00:18.303Z,0
2018-05-11T00:01:28.053Z,0
2018-05-11T00:02:38.072Z,0
2018-05-11T00:03:48.089Z,0
2018-05-11T00:04:57.313Z,0
2018-05-11T00:06:07.062Z,0
2018-05-11T00:07:17.067Z,0
2018-05-11T00:08:27.084Z,0
2018-05-11T00:09:36.563Z,0
2018-05-11T00:10:46.047Z,0
2018-05-11T00:11:55.792Z,0
2018-05-11T00:13:05.804Z,0
2018-05-11T00:14:15.551Z,0
2018-05-11T00:15:25.296Z,0
2018-05-11T00:16:35.313Z,0
2018-05-11T00:17:44.792Z,0
2018-05-11T00:18:54.012Z,0
2018-05-11T00:20:03.761Z,0
2018-05-11T00:21:13.512Z,0
2018-05-11T00:22:23.261Z,0
2018-05-11T00:23:33.673Z,0
2018-05-11T00:24:43.517Z,0
2018-05-11T00:25:53.532Z,0
2018-05-11T00:27:03.630Z,0
2018-05-11T00:28:13.381Z,0
2018-05-11T00:29:23.480Z,0
2018-05-11T00:30:33.502Z,0
2018-05-11T00:31:43.515Z,0
2018-05-11T00:32:53.530Z,0
2018-05-11T00:34:03.568Z,0
2018-05-11T00:35:13.327Z,0
2018-05-11T00:36:22.544Z,0
2018-05-11T00:37:32.297Z,0
2018-05-11T00:38:42.317Z,0
2018-05-11T00:39:52.056Z,0
2018-05-11T00:41:01.849Z,0
2018-05-11T00:42:11.590Z,0
2018-05-11T00:43:21.614Z,0
2018-05-11T00:44:30.824Z,0
2018-05-11T00:45:40.570Z,0
2018-05-11T00:46:50.619Z,0
2018-05-11T00:48:00.102Z,0
2018-05-11T00:49:10.118Z,0
2018-05-11T00:50:20.138Z,0
2018-05-11T00:51:30.233Z,0
2018-05-11T00:52:39.983Z,0
2018-05-11T00:53:49.993Z,0
2018-05-11T00:55:00.017Z,0
2018-05-11T00:56:10.026Z,0
2018-05-11T00:57:20.037Z,0
2018-05-11T00:58:30.057Z,0
2018-05-11T00:59:39.273Z,0
2018-05-11T01:00:49.293Z,0
2018-05-11T01:01:59.308Z,0
2018-05-11T01:03:09.055Z,0
2018-05-11T01:04:19.069Z,0
2018-05-11T01:05:28.811Z,0
2018-05-11T01:06:38.825Z,0
2018-05-11T01:07:48.588Z,0
2018-05-11T01:08:57.796Z,0
2018-05-11T01:10:07.539Z,0
2018-05-11T01:11:17.554Z,0
2018-05-11T01:12:27.571Z,0
2018-05-11T01:13:37.585Z,0
2018-05-11T01:14:47.598Z,0
2018-05-11T01:15:57.624Z,0
2018-05-11T01:17:07.488Z,0
2018-05-11T01:18:17.248Z,0
2018-05-11T01:19:27.272Z,0
2018-05-11T01:20:37.305Z,0
2018-05-11T01:21:47.048Z,0
2018-05-11T01:22:57.067Z,0
2018-05-11T01:24:06.818Z,0
2018-05-11T01:25:16.565Z,0
2018-05-11T01:26:26.583Z,0
2018-05-11T01:27:36.602Z,0
2018-05-11T01:28:46.349Z,0
2018-05-11T01:29:55.827Z,0
2018-05-11T01:31:05.836Z,0
2018-05-11T01:32:15.848Z,0
2018-05-11T01:33:25.863Z,0
2018-05-11T01:34:35.621Z,0
2018-05-11T01:35:45.372Z,0
2018-05-11T01:36:55.388Z,0
2018-05-11T01:38:05.144Z,0
2018-05-11T01:39:15.173Z,0
2018-05-11T01:40:25.185Z,0
2018-05-11T01:41:34.932Z,0
2018-05-11T01:42:44.941Z,0
2018-05-11T01:43:54.955Z,0
2018-05-11T01:45:04.698Z,0
2018-05-11T01:46:14.710Z,0
2018-05-11T01:47:24.186Z,0
2018-05-11T01:48:34.209Z,0
2018-05-11T01:49:44.223Z,0
2018-05-11T01:50:54.335Z,0
2018-05-11T01:52:04.086Z,0
2018-05-11T01:53:13.830Z,0
2018-05-11T01:54:23.847Z,0
2018-05-11T01:55:33.864Z,0
2018-05-11T01:56:43.605Z,0
2018-05-11T01:57:53.349Z,0
2018-05-11T01:59:03.371Z,0
2018-05-11T02:00:13.393Z,0
2018-05-11T02:01:23.414Z,0
2018-05-11T02:02:33.509Z,0
2018-05-11T02:03:43.264Z,0
2018-05-11T02:04:53.011Z,0
2018-05-11T02:06:02.755Z,0
2018-05-11T02:07:12.511Z,0
2018-05-11T02:08:22.257Z,0
2018-05-11T02:09:32.286Z,0
2018-05-11T02:10:42.297Z,0
2018-05-11T02:11:52.314Z,0
2018-05-11T02:13:02.060Z,0
2018-05-11T02:14:11.546Z,0
2018-05-11T02:15:21.293Z,0
2018-05-11T02:16:31.305Z,0
2018-05-11T02:17:41.326Z,0
2018-05-11T02:18:50.941Z,0
2018-05-11T02:20:00.697Z,0
2018-05-11T02:21:09.639Z,0
2018-05-11T02:22:19.382Z,0
2018-05-11T02:23:28.860Z,0
2018-05-11T02:24:38.603Z,0
2018-05-11T02:25:48.701Z,0
2018-05-11T02:26:58.812Z,0
2018-05-11T02:28:08.566Z,0
2018-05-11T02:29:18.583Z,0
2018-05-11T02:30:28.615Z,0
2018-05-11T02:31:37.885Z,0
2018-05-11T02:32:47.638Z,0
2018-05-11T02:33:57.427Z,0
2018-05-11T02:35:07.208Z,0
2018-05-11T02:36:17.279Z,0
2018-05-11T02:37:27.224Z,0
2018-05-11T02:38:37.258Z,0
2018-05-11T02:39:46.739Z,0
2018-05-11T02:40:56.488Z,0
2018-05-11T02:42:06.501Z,0
2018-05-11T02:43:16.253Z,0
2018-05-11T02:44:26.011Z,0
2018-05-11T02:45:35.769Z,0
2018-05-11T02:46:45.251Z,0
2018-05-11T02:47:55.274Z,0
2018-05-11T02:49:05.311Z,0
2018-05-11T02:50:15.331Z,0
2018-05-11T02:51:25.081Z,0
2018-05-11T02:52:34.838Z,0
2018-05-11T02:53:44.589Z,0
2018-05-11T02:54:54.627Z,0
2018-05-11T02:56:04.384Z,0
2018-05-11T02:57:14.409Z,0
2018-05-11T02:58:23.898Z,0
2018-05-11T02:59:33.933Z,0
2018-05-11T03:03:31.250Z,0
2018-05-11T03:04:40.841Z,0
2018-05-11T03:05:50.858Z,0
2018-05-11T03:07:00.875Z,0
2018-05-11T03:08:10.630Z,0
2018-05-11T03:09:20.648Z,0
2018-05-11T03:10:30.811Z,0
2018-05-11T03:11:40.923Z,0
2018-05-11T03:12:50.955Z,0
2018-05-11T03:14:00.435Z,0
2018-05-11T03:15:10.200Z,0
2018-05-11T03:16:20.226Z,0
2018-05-11T03:17:30.302Z,0
2018-05-11T03:18:41.007Z,0
2018-05-11T03:19:51.136Z,0
2018-05-11T03:21:01.157Z,5
2018-05-11T03:22:10.376Z,5
2018-05-11T03:23:20.398Z,5
2018-05-11T03:24:30.141Z,5
2018-05-11T03:25:39.617Z,5
2018-05-11T03:26:49.640Z,5
2018-05-11T03:27:59.647Z,5
2018-05-11T03:29:09.124Z,10
2018-05-11T03:30:18.885Z,10
2018-05-11T03:31:28.646Z,10
2018-05-11T03:32:38.661Z,10
2018-05-11T03:33:48.412Z,5
2018-05-11T03:34:58.160Z,5
2018-05-11T03:36:07.907Z,5
2018-05-11T03:37:17.921Z,5
2018-05-11T03:38:27.662Z,10
2018-05-11T03:39:37.676Z,10
2018-05-11T03:40:47.153Z,15
2018-05-11T03:41:57.158Z,15
2018-05-11T03:43:06.368Z,10
2018-05-11T03:44:16.119Z,10
2018-05-11T03:45:26.132Z,10
2018-05-11T03:46:36.147Z,10
2018-05-11T03:47:46.160Z,10
2018-05-11T03:48:55.910Z,10
2018-05-11T03:50:05.931Z,10
2018-05-11T03:51:15.944Z,10
2018-05-11T03:52:25.957Z,10
2018-05-11T03:53:35.443Z,10
2018-05-11T03:54:45.464Z,10
2018-05-11T03:55:55.490Z,10
2018-05-11T03:57:05.239Z,10
2018-05-11T03:58:14.985Z,10
2018-05-11T03:59:25.000Z,10
2018-05-11T04:00:34.214Z,10
2018-05-11T04:01:43.957Z,10
2018-05-11T04:02:53.699Z,10
2018-05-11T04:04:03.716Z,10
2018-05-11T04:05:13.471Z,10
2018-05-11T04:06:23.483Z,15
2018-05-11T04:07:33.491Z,15
2018-05-11T04:08:43.508Z,10
2018-05-11T04:09:53.344Z,10
2018-05-11T04:11:03.358Z,10
2018-05-11T04:12:13.373Z,5
2018-05-11T04:13:23.624Z,5
2018-05-11T04:14:33.377Z,5
2018-05-11T04:15:43.404Z,0
2018-05-11T04:16:53.156Z,0
2018-05-11T04:18:02.909Z,5
2018-05-11T04:19:12.495Z,5
2018-05-11T04:20:22.241Z,5
2018-05-11T04:21:32.252Z,5
2018-05-11T04:22:41.998Z,5
2018-05-11T04:23:51.742Z,5
2018-05-11T04:25:01.487Z,5
2018-05-11T04:26:10.965Z,5
2018-05-11T04:27:20.441Z,10
2018-05-11T04:28:29.917Z,10
2018-05-11T04:29:39.938Z,10
2018-05-11T04:30:49.686Z,15
2018-05-11T04:31:59.443Z,15
2018-05-11T04:33:09.183Z,15
2018-05-11T04:34:19.203Z,15
2018-05-11T04:35:29.213Z,15
2018-05-11T04:36:39.274Z,15
2018-05-11T04:37:49.291Z,15
2018-05-11T04:38:58.773Z,15
2018-05-11T04:40:08.530Z,15
2018-05-11T04:41:18.550Z,10
2018-05-11T04:42:28.301Z,10
2018-05-11T04:43:38.314Z,15
2018-05-11T04:44:48.326Z,15
2018-05-11T04:45:58.341Z,15
2018-05-11T04:47:08.370Z,15
2018-05-11T04:48:18.384Z,15
2018-05-11T04:49:28.465Z,15
2018-05-11T04:50:38.576Z,20
2018-05-11T04:51:48.595Z,20
2018-05-11T04:52:58.339Z,25
2018-05-11T04:54:08.084Z,35
2018-05-11T04:55:18.093Z,45
2018-05-11T04:56:27.844Z,50
2018-05-11T04:57:37.590Z,55
2018-05-11T04:58:46.815Z,55
2018-05-11T04:59:56.834Z,60
2018-05-11T05:01:06.308Z,65
2018-05-11T05:02:16.319Z,70
2018-05-11T05:03:26.336Z,75
2018-05-11T05:04:36.128Z,90
2018-05-11T05:05:46.138Z,105
2018-05-11T05:06:55.881Z,95
2018-05-11T05:08:05.903Z,90
2018-05-11T05:09:15.654Z,105
2018-05-11T05:10:25.666Z,110
2018-05-11T05:11:35.413Z,110
2018-05-11T05:12:44.895Z,120
2018-05-11T05:13:54.907Z,110
2018-05-11T05:15:04.121Z,110
2018-05-11T05:16:13.331Z,105
2018-05-11T05:17:23.182Z,90
2018-05-11T05:18:32.939Z,90
2018-05-11T05:19:42.705Z,90
2018-05-11T05:20:52.722Z,90
2018-05-11T05:22:02.478Z,100
2018-05-11T05:23:12.221Z,100
2018-05-11T05:24:21.702Z,100
2018-05-11T05:25:31.724Z,95
2018-05-11T05:26:41.743Z,105
2018-05-11T05:27:51.750Z,100
2018-05-11T05:29:00.959Z,95
2018-05-11T05:30:10.439Z,95
2018-05-11T05:31:19.913Z,95
2018-05-11T05:32:29.669Z,100
2018-05-11T05:33:39.682Z,100
2018-05-11T05:34:49.446Z,100
2018-05-11T05:35:59.460Z,110
2018-05-11T05:37:09.257Z,120
2018-05-11T05:38:18.998Z,110
2018-05-11T05:39:28.747Z,100
2018-05-11T05:40:38.533Z,90
2018-05-11T05:41:48.547Z,95
2018-05-11T05:42:58.295Z,85
2018-05-11T05:44:07.509Z,75
2018-05-11T05:45:17.259Z,75
2018-05-11T05:46:27.363Z,80
2018-05-11T05:47:37.375Z,95
2018-05-11T05:48:47.132Z,110
2018-05-11T05:49:57.228Z,120
2018-05-11T05:51:07.243Z,130
2018-05-11T05:52:17.144Z,125
2018-05-11T05:53:26.922Z,120
2018-05-11T05:54:36.671Z,120
2018-05-11T05:55:46.698Z,115
2018-05-11T05:56:56.711Z,120
2018-05-11T05:58:06.186Z,115
2018-05-11T05:59:15.673Z,110
2018-05-11T06:00:25.683Z,105
2018-05-11T06:01:35.700Z,90
2018-05-11T06:02:45.772Z,75
2018-05-11T06:03:55.793Z,70
2018-05-11T06:05:05.537Z,65
2018-05-11T06:06:15.289Z,65
2018-05-11T06:07:25.330Z,70
2018-05-11T06:08:35.340Z,70
2018-05-11T06:09:45.086Z,70
2018-05-11T06:10:55.092Z,70
2018-05-11T06:12:04.585Z,70
2018-05-11T06:13:14.337Z,75
2018-05-11T06:14:24.359Z,70
2018-05-11T06:15:34.169Z,70
2018-05-11T06:16:44.197Z,65
2018-05-11T06:17:54.350Z,65
2018-05-11T06:19:04.365Z,70
2018-05-11T06:20:14.458Z,75
2018-05-11T06:21:24.208Z,75
2018-05-11T06:22:34.230Z,75
2018-05-11T06:23:44.248Z,75
2018-05-11T06:24:54.670Z,65
2018-05-11T06:26:04.244Z,65
2018-05-11T06:27:14.256Z,65
2018-05-11T06:28:24.006Z,65
2018-05-11T06:29:33.753Z,70
2018-05-11T06:30:43.506Z,75
2018-05-11T06:31:53.518Z,65
2018-05-11T06:33:03.531Z,70
2018-05-11T06:34:13.015Z,75
2018-05-11T06:35:23.030Z,75
2018-05-11T06:36:33.050Z,80
2018-05-11T06:37:43.063Z,85
2018-05-11T06:38:52.820Z,90
2018-05-11T06:40:02.572Z,95
2018-05-11T06:41:12.588Z,105
2018-05-11T06:42:22.344Z,100
2018-05-11T06:43:32.368Z,110
2018-05-11T06:44:41.894Z,120
2018-05-11T06:45:51.917Z,120
2018-05-11T06:47:01.668Z,120
2018-05-11T06:48:11.684Z,125
2018-05-11T06:49:21.431Z,125
2018-05-11T06:50:31.444Z,130
2018-05-11T06:51:41.198Z,135
2018-05-11T06:52:50.952Z,130
2018-05-11T06:54:00.708Z,125
2018-05-11T06:55:10.461Z,125
2018-05-11T06:56:19.671Z,120
2018-05-11T06:57:29.416Z,120
2018-05-11T06:58:39.424Z,115
2018-05-11T06:59:49.441Z,115
2018-05-11T07:00:58.918Z,95
2018-05-11T07:02:09.029Z,90
2018-05-11T07:03:19.042Z,90
2018-05-11T07:04:28.786Z,80
2018-05-11T07:05:38.003Z,80
2018-05-11T07:06:47.482Z,80
2018-05-11T07:07:58.083Z,90
2018-05-11T07:09:08.114Z,90
2018-05-11T07:10:17.323Z,85
2018-05-11T07:11:26.808Z,85
2018-05-11T07:12:36.845Z,85
2018-05-11T07:13:46.600Z,80
2018-05-11T07:14:56.615Z,90
2018-05-11T07:16:06.363Z,95
2018-05-11T07:17:15.840Z,90
2018-05-11T07:18:25.345Z,105
2018-05-11T07:19:35.944Z,110
2018-05-11T07:20:45.966Z,115
2018-05-11T07:21:55.449Z,110
2018-05-11T07:23:05.463Z,105
2018-05-11T07:24:15.476Z,95
2018-05-11T07:25:25.499Z,90
2018-05-11T07:26:35.511Z,105
2018-05-11T07:27:45.261Z,120
2018-05-11T07:28:55.276Z,125
2018-05-11T07:30:05.288Z,145
2018-05-11T07:31:15.041Z,135
2018-05-11T07:32:24.519Z,125
2018-05-11T07:33:34.267Z,130
2018-05-11T07:34:44.284Z,125
2018-05-11T07:35:53.765Z,130
2018-05-11T07:37:03.779Z,140
2018-05-11T07:38:13.803Z,130
2018-05-11T07:39:23.813Z,135
2018-05-11T07:40:33.827Z,135
2018-05-11T07:41:43.311Z,120
2018-05-11T07:42:53.624Z,130
2018-05-11T07:44:03.639Z,150
2018-05-11T07:45:13.383Z,150
2018-05-11T07:46:23.408Z,155
2018-05-11T07:47:33.421Z,135
2018-05-11T07:48:43.450Z,135
2018-05-11T07:49:52.936Z,145
2018-05-11T07:51:02.685Z,130
2018-05-11T07:52:12.165Z,125
2018-05-11T07:53:21.923Z,130
2018-05-11T07:54:31.942Z,145
2018-05-11T07:55:41.702Z,150
2018-05-11T07:56:51.714Z,135
2018-05-11T07:58:01.726Z,125
2018-05-11T07:59:10.936Z,105
2018-05-11T08:00:20.146Z,95
2018-05-11T08:01:29.897Z,90
2018-05-11T08:02:39.639Z,100
2018-05-11T08:03:49.430Z,90
2018-05-11T08:04:59.456Z,70
2018-05-11T08:06:09.568Z,65
2018-05-11T08:07:19.587Z,60
2018-05-11T08:08:29.600Z,60
2018-05-11T08:09:39.079Z,60
2018-05-11T08:10:49.094Z,60
2018-05-11T08:11:58.842Z,70
2018-05-11T08:13:08.596Z,75
2018-05-11T08:14:18.681Z,75
2018-05-11T08:15:28.531Z,85
2018-05-11T08:16:38.550Z,90
2018-05-11T08:17:48.557Z,100
2018-05-11T08:18:58.574Z,100
2018-05-11T08:20:08.331Z,100
2018-05-11T08:21:18.524Z,100
2018-05-11T08:22:28.194Z,100
2018-05-11T08:23:37.947Z,105
2018-05-11T08:24:47.696Z,100
2018-05-11T08:25:56.908Z,95
2018-05-11T08:27:07.133Z,100
2018-05-11T08:28:17.151Z,100
2018-05-11T08:29:26.639Z,95
2018-05-11T08:30:36.654Z,90
2018-05-11T08:31:46.672Z,85
2018-05-11T08:32:56.422Z,80
2018-05-11T08:34:05.639Z,80
2018-05-11T08:35:15.668Z,85
2018-05-11T08:36:25.414Z,80
2018-05-11T08:37:35.429Z,80
2018-05-11T08:38:45.175Z,75
2018-05-11T08:39:54.657Z,75
2018-05-11T08:41:03.917Z,75
2018-05-11T08:42:13.660Z,80
2018-05-11T08:43:23.676Z,80
2018-05-11T08:44:33.175Z,85
2018-05-11T08:45:42.921Z,85
2018-05-11T08:46:52.937Z,90
2018-05-11T08:48:02.426Z,90
2018-05-11T08:49:11.909Z,95
2018-05-11T08:50:21.397Z,100
2018-05-11T08:51:31.414Z,100
2018-05-11T08:52:40.890Z,105
2018-05-11T08:53:50.633Z,105
2018-05-11T08:55:00.440Z,115
2018-05-11T08:56:10.196Z,130
2018-05-11T08:57:20.593Z,135
2018-05-11T08:58:30.332Z,135
2018-05-11T08:59:40.076Z,135
2018-05-11T09:00:50.085Z,130
2018-05-11T09:02:00.102Z,125
2018-05-11T09:03:09.503Z,120
2018-05-11T09:04:19.245Z,115
2018-05-11T09:05:28.996Z,115
2018-05-11T09:06:38.218Z,120
2018-05-11T09:07:48.231Z,135
2018-05-11T09:08:58.238Z,145
2018-05-11T09:10:08.347Z,145
2018-05-11T09:11:18.362Z,145
2018-05-11T09:12:28.416Z,150
2018-05-11T09:13:38.153Z,170
2018-05-11T09:14:48.168Z,210
2018-05-11T09:15:57.379Z,260
2018-05-11T09:17:06.869Z,295
2018-05-11T09:18:16.616Z,295
2018-05-11T09:19:26.624Z,275
2018-05-11T09:20:36.373Z,260
2018-05-11T09:21:46.226Z,240
2018-05-11T09:22:55.972Z,215
2018-05-11T09:24:05.991Z,190
2018-05-11T09:25:15.200Z,170
2018-05-11T09:26:24.676Z,165
2018-05-11T09:27:34.423Z,170
2018-05-11T09:28:44.178Z,180
2018-05-11T09:29:54.188Z,180
2018-05-11T09:31:03.937Z,180
2018-05-11T09:32:13.961Z,175
2018-05-11T09:33:23.711Z,170
2018-05-11T09:34:32.647Z,160
2018-05-11T09:35:42.120Z,150
2018-05-11T09:36:51.861Z,140
2018-05-11T09:38:01.339Z,130
2018-05-11T09:39:11.364Z,115
2018-05-11T09:40:21.101Z,105
2018-05-11T09:41:30.846Z,95
2018-05-11T09:42:40.854Z,90
2018-05-11T09:43:50.860Z,90
2018-05-11T09:45:00.889Z,85
2018-05-11T09:46:10.631Z,90
2018-05-11T09:47:20.640Z,85
2018-05-11T09:48:30.643Z,85
2018-05-11T09:49:41.140Z,80
2018-05-11T09:50:51.155Z,85
2018-05-11T09:52:01.169Z,85
2018-05-11T09:53:11.187Z,80
2018-05-11T09:54:21.196Z,75
2018-05-11T09:55:30.953Z,70
2018-05-11T09:56:40.524Z,70
2018-05-11T09:57:50.004Z,65
2018-05-11T09:58:59.756Z,65
2018-05-11T10:00:09.497Z,65
2018-05-11T10:01:19.244Z,70
2018-05-11T10:02:28.184Z,75
2018-05-11T10:03:38.195Z,80
2018-05-11T10:04:47.937Z,85
2018-05-11T10:05:57.955Z,95
2018-05-11T10:07:07.724Z,100
2018-05-11T10:08:17.465Z,105
2018-05-11T10:09:27.213Z,120
2018-05-11T10:10:37.227Z,135
2018-05-11T10:11:47.246Z,145
2018-05-11T10:12:56.986Z,160
2018-05-11T10:14:07.393Z,165
2018-05-11T10:15:16.876Z,175
2018-05-11T10:16:26.633Z,185
2018-05-11T10:17:36.375Z,190
2018-05-11T10:18:46.390Z,195
2018-05-11T10:19:56.401Z,205
2018-05-11T10:21:06.563Z,210
2018-05-11T10:22:16.579Z,210
2018-05-11T10:23:26.319Z,215
2018-05-11T10:24:36.340Z,230
2018-05-11T10:25:46.451Z,230
2018-05-11T10:26:55.926Z,205
2018-05-11T10:28:06.023Z,165
2018-05-11T10:29:16.239Z,150
2018-05-11T10:30:25.983Z,145
2018-05-11T10:31:35.989Z,135
2018-05-11T10:32:46.004Z,125
2018-05-11T10:33:55.484Z,115
2018-05-11T10:35:05.503Z,115
2018-05-11T10:36:15.511Z,90
2018-05-11T10:37:25.518Z,125
2018-05-11T10:38:35.529Z,120
2018-05-11T10:39:45.365Z,125
2018-05-11T10:40:55.392Z,115
2018-05-11T10:42:05.135Z,105
2018-05-11T10:43:14.606Z,100
2018-05-11T10:44:24.088Z,90
2018-05-11T10:45:33.909Z,70
2018-05-11T10:46:43.659Z,75
2018-05-11T10:47:53.411Z,80
2018-05-11T10:49:03.211Z,75
2018-05-11T10:50:12.969Z,95
2018-05-11T10:51:22.461Z,85
2018-05-11T10:52:32.469Z,80
2018-05-11T10:53:42.213Z,95
2018-05-11T10:54:52.219Z,85
2018-05-11T10:56:01.694Z,100
2018-05-11T10:57:11.700Z,100
2018-05-11T10:58:21.718Z,100
2018-05-11T10:59:31.723Z,95
2018-05-11T11:00:41.787Z,110
2018-05-11T11:01:51.548Z,100
2018-05-11T11:03:01.562Z,100
2018-05-11T11:04:11.321Z,115
2018-05-11T11:05:21.337Z,125
2018-05-11T11:06:31.346Z,125
2018-05-11T11:07:41.388Z,140
2018-05-11T11:08:51.398Z,145
2018-05-11T11:10:01.413Z,140
2018-05-11T11:11:10.887Z,135
2018-05-11T11:12:20.628Z,130
2018-05-11T11:13:30.786Z,135
2018-05-11T11:14:40.803Z,135
2018-05-11T11:15:50.812Z,145
2018-05-11T11:17:00.837Z,135
2018-05-11T11:18:10.673Z,135
2018-05-11T11:19:20.699Z,145
2018-05-11T11:20:30.438Z,155
2018-05-11T11:21:40.457Z,160
2018-05-11T11:22:50.465Z,165
2018-05-11T11:24:00.476Z,195
2018-05-11T11:25:09.951Z,205
2018-05-11T11:26:19.957Z,225
2018-05-11T11:27:29.698Z,215
2018-05-11T11:28:39.444Z,205
2018-05-11T11:29:49.184Z,205
2018-05-11T11:30:58.657Z,210
2018-05-11T11:32:08.397Z,210
2018-05-11T11:33:18.423Z,215
2018-05-11T11:34:28.892Z,205
2018-05-11T11:35:39.016Z,175
2018-05-11T11:36:48.776Z,175
2018-05-11T11:37:58.517Z,165
2018-05-11T11:39:08.264Z,160
2018-05-11T11:40:18.086Z,160
2018-05-11T11:41:27.830Z,155
2018-05-11T11:42:37.847Z,155
2018-05-11T11:43:47.859Z,155
2018-05-11T11:44:57.873Z,140
2018-05-11T11:46:07.627Z,150
2018-05-11T11:47:17.105Z,130
2018-05-11T11:48:27.111Z,125
2018-05-11T11:49:36.605Z,125
2018-05-11T11:50:46.082Z,120
2018-05-11T11:51:56.107Z,125
2018-05-11T11:53:05.913Z,130
2018-05-11T11:54:15.655Z,135
2018-05-11T11:55:25.403Z,140
2018-05-11T11:56:35.689Z,135
2018-05-11T11:57:45.698Z,135
2018-05-11T11:58:54.901Z,135
2018-05-11T12:00:04.644Z,135
2018-05-11T12:01:14.384Z,135
2018-05-11T12:02:24.399Z,135
2018-05-11T12:03:34.141Z,125
2018-05-11T12:04:44.160Z,120
2018-05-11T12:05:53.643Z,115
2018-05-11T12:07:03.389Z,115
2018-05-11T12:08:13.132Z,120
2018-05-11T12:09:22.879Z,115
2018-05-11T12:10:32.621Z,110
2018-05-11T12:11:41.827Z,120
2018-05-11T12:12:51.836Z,120
2018-05-11T12:14:01.576Z,120
2018-05-11T12:15:10.784Z,120
2018-05-11T12:16:20.902Z,125
2018-05-11T12:17:30.373Z,120
2018-05-11T12:18:39.590Z,115
2018-05-11T12:19:49.603Z,120
2018-05-11T12:20:59.354Z,130
2018-05-11T12:22:09.362Z,130
2018-05-11T12:23:19.379Z,125
2018-05-11T12:24:29.390Z,135
2018-05-11T12:25:39.400Z,150
2018-05-11T12:26:49.418Z,165
2018-05-11T12:27:59.436Z,180
2018-05-11T12:29:09.183Z,180
2018-05-11T12:30:19.215Z,165
2018-05-11T12:31:29.233Z,150
2018-05-11T12:32:38.980Z,150
2018-05-11T12:33:48.990Z,155
2018-05-11T12:34:58.835Z,155
2018-05-11T12:36:08.595Z,150
2018-05-11T12:37:18.069Z,145
2018-05-11T12:38:27.815Z,135
2018-05-11T12:39:37.836Z,140
2018-05-11T12:40:47.622Z,140
2018-05-11T12:41:57.360Z,125
2018-05-11T12:43:07.110Z,130
2018-05-11T12:44:16.854Z,130
2018-05-11T12:45:26.862Z,135
2018-05-11T12:46:37.006Z,145
2018-05-11T12:47:46.491Z,130
2018-05-11T12:48:55.972Z,120
2018-05-11T12:50:05.450Z,110
2018-05-11T12:51:15.199Z,100
2018-05-11T12:52:25.208Z,105
2018-05-11T12:53:35.050Z,105
2018-05-11T12:54:44.530Z,110
2018-05-11T12:55:54.536Z,115
2018-05-11T12:57:04.282Z,125
2018-05-11T12:58:14.312Z,125
2018-05-11T12:59:24.316Z,130
2018-05-11T13:00:34.062Z,130
2018-05-11T13:01:44.080Z,130
2018-05-11T13:02:53.818Z,135
2018-05-11T13:04:03.825Z,135
2018-05-11T13:05:13.831Z,140
2018-05-11T13:06:23.576Z,150
2018-05-11T13:07:33.316Z,155
2018-05-11T13:08:42.524Z,155
2018-05-11T13:09:52.532Z,140
2018-05-11T13:11:02.552Z,145
2018-05-11T13:12:12.288Z,135
2018-05-11T13:13:21.763Z,130
2018-05-11T13:14:31.612Z,135
2018-05-11T13:15:41.365Z,140
2018-05-11T13:16:51.113Z,145
2018-05-11T13:18:01.140Z,140
2018-05-11T13:19:10.634Z,130
2018-05-11T13:20:20.111Z,135
2018-05-11T13:21:29.852Z,140
2018-05-11T13:22:39.324Z,130
2018-05-11T13:23:49.336Z,125
2018-05-11T13:24:59.351Z,120
2018-05-11T13:26:09.092Z,120
2018-05-11T13:27:18.838Z,120
2018-05-11T13:28:28.850Z,125
2018-05-11T13:29:38.870Z,130
2018-05-11T13:30:48.889Z,140
2018-05-11T13:31:58.946Z,145
2018-05-11T13:33:07.886Z,140
2018-05-11T13:34:17.897Z,135
2018-05-11T13:35:27.911Z,135
2018-05-11T13:36:37.907Z,140
2018-05-11T13:37:47.754Z,155
2018-05-11T13:38:57.229Z,160
2018-05-11T13:40:06.704Z,160
2018-05-11T13:41:16.178Z,145
2018-05-11T13:42:25.922Z,150
2018-05-11T13:43:35.664Z,170
2018-05-11T13:44:45.685Z,200
2018-05-11T13:45:55.688Z,230
2018-05-11T13:47:05.439Z,235
2018-05-11T13:48:14.875Z,210
2018-05-11T13:49:24.311Z,185
2018-05-11T13:50:34.320Z,170
2018-05-11T13:51:44.064Z,160
2018-05-11T13:52:54.073Z,155
2018-05-11T13:54:04.077Z,140
2018-05-11T13:55:13.813Z,120
2018-05-11T13:56:24.107Z,100
2018-05-11T13:57:33.854Z,105
2018-05-11T13:58:43.604Z,130
2018-05-11T13:59:53.340Z,170
2018-05-11T14:01:02.812Z,225
2018-05-11T14:02:12.564Z,250
2018-05-11T14:03:22.304Z,225
2018-05-11T14:04:31.777Z,205
2018-05-11T14:05:41.535Z,195
2018-05-11T14:06:51.368Z,195
2018-05-11T14:08:01.201Z,205
2018-05-11T14:09:10.951Z,215
2018-05-11T14:10:21.287Z,220
2018-05-11T14:11:30.425Z,210
2018-05-11T14:12:40.173Z,195
2018-05-11T14:13:49.934Z,185
2018-05-11T14:14:59.678Z,170
2018-05-11T14:16:08.347Z,160
2018-05-11T14:17:17.823Z,160
2018-05-11T14:18:27.561Z,160
2018-05-11T14:19:37.575Z,160
2018-05-11T14:20:47.582Z,150
2018-05-11T14:21:57.327Z,145
2018-05-11T14:23:07.078Z,140
2018-05-11T14:24:16.820Z,135
2018-05-11T14:25:26.836Z,135
2018-05-11T14:26:36.848Z,135
2018-05-11T14:27:46.588Z,135
2018-05-11T14:28:56.328Z,140
2018-05-11T14:30:06.340Z,150
2018-05-11T14:31:15.823Z,170
2018-05-11T14:32:25.569Z,180
2018-05-11T14:33:35.321Z,185
2018-05-11T14:34:45.059Z,185
2018-05-11T14:35:54.807Z,190
2018-05-11T14:37:04.283Z,200
2018-05-11T14:38:14.293Z,205
2018-05-11T14:39:24.612Z,195
2018-05-11T14:40:34.274Z,175
2018-05-11T14:41:44.284Z,165
2018-05-11T14:42:54.299Z,160
2018-05-11T14:44:03.781Z,170
2018-05-11T14:45:13.787Z,175
2018-05-11T14:46:23.796Z,185
2018-05-11T14:47:33.805Z,190
2018-05-11T14:48:43.557Z,195
2018-05-11T14:49:53.850Z,205
2018-05-11T14:51:03.604Z,200
2018-05-11T14:52:13.356Z,190
2018-05-11T14:53:23.374Z,185
2018-05-11T14:54:32.578Z,180
2018-05-11T14:55:42.056Z,180
2018-05-11T14:56:52.067Z,180
2018-05-11T14:58:02.078Z,175
2018-05-11T14:59:12.090Z,180
2018-05-11T15:00:22.106Z,190
2018-05-11T15:01:31.847Z,205
2018-05-11T15:02:41.868Z,215
2018-05-11T15:03:51.606Z,210
2018-05-11T15:05:01.088Z,200
2018-05-11T15:06:10.837Z,205
2018-05-11T15:07:20.844Z,205
2018-05-11T15:08:30.587Z,200
2018-05-11T15:09:40.333Z,190
2018-05-11T15:10:50.339Z,180
2018-05-11T15:12:00.347Z,175
2018-05-11T15:13:10.088Z,170
2018-05-11T15:14:20.104Z,175
2018-05-11T15:15:29.986Z,185
2018-05-11T15:16:39.749Z,185
2018-05-11T15:17:49.502Z,180
2018-05-11T15:18:59.517Z,175
2018-05-11T15:20:08.999Z,160
2018-05-11T15:21:19.096Z,150
2018-05-11T15:22:29.105Z,145
2018-05-11T15:23:39.115Z,145
2018-05-11T15:24:49.139Z,155
2018-05-11T15:25:58.614Z,165
2018-05-11T15:27:08.356Z,180
2018-05-11T15:28:18.466Z,190
2018-05-11T15:29:28.207Z,195
2018-05-11T15:30:38.222Z,195
2018-05-11T15:31:47.967Z,175
2018-05-11T15:32:57.986Z,160
2018-05-11T15:34:07.741Z,160
2018-05-11T15:35:17.750Z,175
2018-05-11T15:36:26.956Z,210
2018-05-11T15:37:36.424Z,235
2018-05-11T15:38:46.460Z,210
2018-05-11T15:39:56.475Z,190
2018-05-11T15:41:06.489Z,190
2018-05-11T15:42:16.499Z,195
2018-05-11T15:43:26.239Z,195
2018-05-11T15:44:35.986Z,200
2018-05-11T15:45:45.995Z,200
2018-05-11T15:46:56.004Z,190
2018-05-11T15:48:05.746Z,180
2018-05-11T15:49:15.492Z,165
2018-05-11T15:50:25.238Z,160
2018-05-11T15:51:35.299Z,160
2018-05-11T15:52:45.310Z,160
2018-05-11T15:53:55.059Z,165
2018-05-11T15:55:04.805Z,175
2018-05-11T15:56:14.564Z,185
2018-05-11T15:57:24.574Z,190
2018-05-11T15:58:34.331Z,205
2018-05-11T15:59:43.808Z,220
2018-05-11T16:00:53.564Z,225
2018-05-11T16:02:03.304Z,240
2018-05-11T16:03:12.778Z,250
2018-05-11T16:04:22.793Z,270
2018-05-11T16:05:32.814Z,300
2018-05-11T16:06:42.822Z,325
2018-05-11T16:07:52.308Z,335
2018-05-11T16:09:02.424Z,340
2018-05-11T16:10:11.633Z,345
2018-05-11T16:11:21.639Z,345
2018-05-11T16:12:31.773Z,345
2018-05-11T16:13:41.805Z,340
2018-05-11T16:14:51.814Z,325
2018-05-11T16:16:01.567Z,305
2018-05-11T16:17:11.322Z,305
2018-05-11T16:18:21.344Z,295
2018-05-11T16:19:30.823Z,295
2018-05-11T16:20:41.091Z,295
2018-05-11T16:21:50.463Z,310
2018-05-11T16:23:00.208Z,325
2018-05-11T16:24:09.684Z,335
2018-05-11T16:25:19.193Z,325
2018-05-11T16:26:28.940Z,305
2018-05-11T16:27:38.693Z,295